Time;durP1;ratioP1;P1;durP2;ratioP2;P2;SDS_P1;SDS_P2;PMS_P1;PMS_P2;Temp;Humidity;BMP_temperature;BMP_pressure;BME280_temperature;BME280_humidity;BME280_pressure;Samples;Min_cycle;Max_cycle;Signal;HPM_P1;HPM_P2
2023/09/26 00:03:49;;;;;;;7.70;5.37;;;;;12.80;101623.00;;;;10313950;28;20193;-75
2023/09/26 00:08:55;;;;;;;9.63;5.33;;;;;12.70;101620.00;;;;10310240;28;20191;-75
2023/09/26 00:13:56;;;;;;;8.23;5.80;;;;;12.70;101626.00;;;;10300728;28;20263;-77
2023/09/26 00:18:58;;;;;;;7.03;4.77;;;;;12.70;101624.00;;;;10310413;28;20267;-76
2023/09/26 00:24:01;;;;;;;10.97;5.97;;;;;12.70;101631.00;;;;10279398;28;20219;-77
2023/09/26 00:29:03;;;;;;;8.37;4.37;;;;;12.60;101617.00;;;;10308614;28;20269;-75
2023/09/26 00:34:05;;;;;;;8.97;4.60;;;;;12.60;101631.00;;;;10309772;28;20212;-76
2023/09/26 00:39:08;;;;;;;8.73;5.17;;;;;12.60;101627.00;;;;10305861;28;20900;-77
2023/09/26 00:44:12;;;;;;;6.80;5.67;;;;;12.50;101632.00;;;;10275721;28;20681;-77
2023/09/26 00:49:14;;;;;;;8.33;5.27;;;;;12.50;101633.00;;;;10288885;28;20200;-80
2023/09/26 00:54:16;;;;;;;10.50;5.00;;;;;12.50;101631.00;;;;10299009;28;20209;-80
2023/09/26 00:59:19;;;;;;;7.50;5.00;;;;;12.50;101636.00;;;;10328534;28;20188;-81
2023/09/26 01:04:22;;;;;;;11.47;5.43;;;;;12.40;101631.00;;;;10303836;28;20212;-80
2023/09/26 01:09:24;;;;;;;8.67;5.47;;;;;12.40;101624.00;;;;10262252;28;20898;-80
2023/09/26 01:14:26;;;;;;;9.53;5.17;;;;;12.40;101620.00;;;;10274021;28;20212;-80
2023/09/26 01:19:29;;;;;;;9.27;5.10;;;;;12.30;101613.00;;;;10305346;28;20193;-80
2023/09/26 01:24:33;;;;;;;7.77;4.57;;;;;12.30;101608.00;;;;10312268;28;20262;-80
2023/09/26 01:29:36;;;;;;;6.60;4.57;;;;;12.30;101598.00;;;;10310066;28;20734;-80
2023/09/26 01:34:39;;;;;;;7.47;4.77;;;;;12.20;101591.00;;;;10307782;28;20214;-80
2023/09/26 01:39:41;;;;;;;7.87;4.77;;;;;12.30;101613.00;;;;10288131;28;20193;-80
2023/09/26 01:44:43;;;;;;;8.17;5.00;;;;;12.30;101607.00;;;;10272164;28;20563;-80
2023/09/26 01:49:44;;;;;;;9.40;4.97;;;;;12.30;101601.00;;;;10301637;28;20199;-80
2023/09/26 01:54:46;;;;;;;9.87;4.37;;;;;12.30;101596.00;;;;10296421;28;20215;-80
2023/09/26 01:59:49;;;;;;;7.33;5.20;;;;;12.30;101590.00;;;;10300911;28;20197;-81
2023/09/26 02:04:50;;;;;;;8.57;4.93;;;;;12.30;101595.00;;;;10319008;28;20204;-81
2023/09/26 02:09:52;;;;;;;9.47;5.43;;;;;12.30;101581.00;;;;10313802;28;20201;-81
2023/09/26 02:14:54;;;;;;;10.60;4.90;;;;;12.30;101576.00;;;;10322358;28;20220;-82
2023/09/26 02:19:56;;;;;;;10.33;4.53;;;;;12.30;101566.00;;;;10329056;28;20184;-82
2023/09/26 02:24:58;;;;;;;11.27;5.10;;;;;12.30;101572.00;;;;10323902;28;20295;-81
2023/09/26 02:30:01;;;;;;;8.37;4.27;;;;;12.20;101566.00;;;;10320415;28;20224;-81
2023/09/26 02:35:04;;;;;;;8.70;4.83;;;;;12.20;101571.00;;;;10313780;28;20624;-82
2023/09/26 02:40:09;;;;;;;6.57;4.47;;;;;12.10;101572.00;;;;10286057;28;20204;-81
2023/09/26 02:45:14;;;;;;;10.87;6.77;;;;;12.10;101560.00;;;;10310711;28;20239;-81
2023/09/26 02:50:16;;;;;;;18.93;11.37;;;;;12.30;101545.00;;;;10308213;28;20400;-81
2023/09/26 02:55:20;;;;;;;17.67;11.43;;;;;12.40;101537.00;;;;10304476;28;20204;-81
2023/09/26 03:00:22;;;;;;;19.40;11.60;;;;;12.50;101551.00;;;;10320757;28;20224;-81
2023/09/26 03:05:24;;;;;;;17.00;10.97;;;;;12.50;101541.00;;;;10308926;28;20208;-81
2023/09/26 03:10:26;;;;;;;15.07;9.17;;;;;12.40;101528.00;;;;10305602;28;20238;-83
2023/09/26 03:15:28;;;;;;;15.60;8.87;;;;;12.30;101532.00;;;;10301905;28;20200;-83
2023/09/26 03:20:30;;;;;;;13.97;8.70;;;;;12.30;101530.00;;;;10301433;28;20196;-83
2023/09/26 03:25:32;;;;;;;11.20;7.37;;;;;12.20;101528.00;;;;10317702;28;20243;-83
2023/09/26 03:30:34;;;;;;;10.90;7.30;;;;;12.10;101529.00;;;;10313068;28;20854;-83
2023/09/26 03:35:37;;;;;;;14.87;8.03;;;;;12.10;101516.00;;;;10303314;28;20304;-82
2023/09/26 03:40:38;;;;;;;12.57;6.83;;;;;12.00;101516.00;;;;10319778;28;20193;-82
2023/09/26 03:45:40;;;;;;;11.70;5.70;;;;;12.00;101519.00;;;;10301301;28;20220;-83
2023/09/26 03:50:46;;;;;;;12.00;6.20;;;;;12.00;101524.00;;;;10324082;28;20275;-82
2023/09/26 03:55:55;;;;;;;10.47;6.10;;;;;12.00;101518.00;;;;10301531;28;20205;-81
2023/09/26 04:01:15;;;;;;;12.50;6.03;;;;;12.00;101508.00;;;;10320062;28;20200;-82
2023/09/26 04:06:17;;;;;;;10.67;6.03;;;;;12.00;101504.00;;;;10322932;28;20608;-82
2023/09/26 04:11:19;;;;;;;13.23;6.73;;;;;12.00;101508.00;;;;10315603;28;20212;-82
2023/09/26 04:16:21;;;;;;;13.37;7.13;;;;;12.10;101509.00;;;;10305141;28;20193;-82
2023/09/26 04:21:23;;;;;;;14.93;6.87;;;;;12.30;101500.00;;;;10297072;28;20247;-81
2023/09/26 04:26:25;;;;;;;8.80;5.50;;;;;12.30;101506.00;;;;10280805;28;20196;-82
2023/09/26 04:31:27;;;;;;;13.73;6.63;;;;;12.50;101497.00;;;;10287441;28;20236;-83
2023/09/26 04:36:29;;;;;;;11.10;6.27;;;;;12.70;101490.00;;;;10310091;28;20902;-82
2023/09/26 04:41:32;;;;;;;8.93;5.77;;;;;12.80;101499.00;;;;10313211;28;20196;-81
2023/09/26 04:46:33;;;;;;;8.07;5.97;;;;;12.80;101488.00;;;;10299936;28;20192;-83
2023/09/26 04:51:36;;;;;;;9.33;5.63;;;;;12.70;101474.00;;;;10315579;28;20236;-83
2023/09/26 04:56:37;;;;;;;7.63;5.57;;;;;12.70;101490.00;;;;10306454;28;20220;-83
2023/09/26 05:01:39;;;;;;;10.63;5.60;;;;;12.60;101483.00;;;;10294216;28;20200;-83
2023/09/26 05:06:41;;;;;;;11.27;5.17;;;;;12.40;101490.00;;;;10296313;28;20554;-84
2023/09/26 05:11:43;;;;;;;7.53;5.60;;;;;12.30;101485.00;;;;10317650;28;20562;-83
2023/09/26 05:16:45;;;;;;;17.10;5.80;;;;;12.10;101486.00;;;;10327691;28;20640;-83
2023/09/26 05:21:47;;;;;;;8.33;5.23;;;;;12.10;101484.00;;;;10312921;28;20196;-83
2023/09/26 05:26:49;;;;;;;8.13;5.13;;;;;12.00;101484.00;;;;10290738;28;20193;-83
2023/09/26 05:31:51;;;;;;;11.23;7.40;;;;;12.00;101482.00;;;;10297306;28;20232;-77
2023/09/26 05:36:53;;;;;;;10.70;6.40;;;;;12.00;101475.00;;;;10304211;28;20188;-78
2023/09/26 05:41:55;;;;;;;11.53;6.13;;;;;12.00;101485.00;;;;10320694;28;20191;-77
2023/09/26 05:46:57;;;;;;;10.20;6.27;;;;;12.00;101496.00;;;;10289704;28;20255;-77
2023/09/26 05:51:59;;;;;;;8.93;6.30;;;;;12.10;101481.00;;;;10303298;28;20248;-82
2023/09/26 05:57:03;;;;;;;10.60;6.00;;;;;12.10;101481.00;;;;10304545;28;20196;-78
2023/09/26 06:02:07;;;;;;;8.83;6.27;;;;;12.20;101487.00;;;;10288653;28;20201;-79
2023/09/26 06:07:09;;;;;;;8.60;6.10;;;;;12.30;101484.00;;;;10308904;28;20199;-78
2023/09/26 06:12:11;;;;;;;9.30;6.73;;;;;12.60;101481.00;;;;10294894;28;20694;-77
2023/09/26 06:17:13;;;;;;;8.70;6.30;;;;;12.90;101472.00;;;;10318134;28;20704;-81
2023/09/26 06:22:16;;;;;;;7.00;5.93;;;;;12.90;101474.00;;;;10334081;28;20196;-81
2023/09/26 06:27:18;;;;;;;8.73;6.03;;;;;13.10;101479.00;;;;10332461;28;20275;-78
2023/09/26 06:32:19;;;;;;;7.90;5.60;;;;;13.20;101472.00;;;;10315625;28;20212;-80
2023/09/26 06:37:22;;;;;;;11.43;6.50;;;;;13.30;101488.00;;;;10291819;28;20209;-79
2023/09/26 06:42:24;;;;;;;11.60;6.37;;;;;13.50;101493.00;;;;10335208;28;20197;-87
2023/09/26 06:47:26;;;;;;;12.07;6.40;;;;;13.70;101485.00;;;;10342099;28;20235;-85
2023/09/26 06:52:29;;;;;;;7.93;6.03;;;;;13.90;101494.00;;;;10334763;28;20212;-83
2023/09/26 06:57:31;;;;;;;9.55;5.40;;;;;14.10;101496.00;;;;10344049;28;20215;-83
2023/09/26 07:02:33;;;;;;;9.27;5.80;;;;;14.20;101480.00;;;;10346648;28;20192;-84
2023/09/26 07:07:35;;;;;;;9.70;4.40;;;;;14.50;101486.00;;;;10343979;28;20180;-87
2023/09/26 07:12:38;;;;;;;12.18;5.38;;;;;14.70;101481.00;;;;10379584;28;20279;-81
2023/09/26 07:17:40;;;;;;;8.32;4.38;;;;;15.10;101491.00;;;;10360507;28;20188;-84
2023/09/26 07:22:46;;;;;;;5.75;4.03;;;;;15.50;101489.00;;;;10355296;28;20223;-84
2023/09/26 07:27:49;;;;;;;5.28;3.88;;;;;15.90;101477.00;;;;10338869;28;20196;-86
2023/09/26 07:32:51;;;;;;;5.57;3.80;;;;;16.30;101481.00;;;;10330515;28;20910;-86
2023/09/26 07:37:55;;;;;;;4.10;3.33;;;;;16.60;101484.00;;;;10338588;28;20252;-89
2023/09/26 07:42:57;;;;;;;5.15;3.33;;;;;17.10;101480.00;;;;10342903;28;20192;-88
2023/09/26 07:53:59;;;;;;;3.75;2.95;;;;;17.90;101480.00;;;;10288799;28;20233;-83
2023/09/26 07:59:01;;;;;;;5.25;2.63;;;;;18.20;101484.00;;;;10299106;28;20563;-82
2023/09/26 08:04:03;;;;;;;8.05;3.45;;;;;18.30;101483.00;;;;10289623;28;20248;-83
2023/09/26 08:09:05;;;;;;;5.07;2.75;;;;;18.50;101482.00;;;;10273200;28;20189;-81
2023/09/26 08:14:07;;;;;;;4.32;2.35;;;;;18.70;101479.00;;;;10274106;28;20209;-80
2023/09/26 08:19:09;;;;;;;5.07;2.10;;;;;19.00;101467.00;;;;10258815;28;20202;-80
2023/09/26 08:24:11;;;;;;;6.85;3.05;;;;;19.40;101466.00;;;;10267082;28;20197;-83
2023/09/26 08:29:13;;;;;;;6.35;2.47;;;;;19.70;101467.00;;;;10288588;28;20205;-83
2023/09/26 08:34:15;;;;;;;4.25;2.67;;;;;20.30;101470.00;;;;10248383;28;20214;-83
2023/09/26 08:39:17;;;;;;;7.70;2.70;;;;;20.40;101467.00;;;;10246909;28;20659;-83
2023/09/26 08:44:19;;;;;;;12.95;3.00;;;;;20.30;101468.00;;;;10274177;28;20201;-84
2023/09/26 08:49:21;;;;;;;135.95;14.55;;;;;20.40;101469.00;;;;10262719;28;20209;-84
2023/09/26 08:54:23;;;;;;;6.07;2.55;;;;;20.30;101461.00;;;;10286239;28;20216;-80
2023/09/26 08:59:26;;;;;;;8.10;2.45;;;;;20.30;101468.00;;;;10273458;28;20193;-81
2023/09/26 09:04:28;;;;;;;147.20;18.15;;;;;20.40;101458.00;;;;10277899;28;20201;-82
2023/09/26 09:09:31;;;;;;;9.30;2.63;;;;;20.70;101457.00;;;;10267250;28;20272;-82
2023/09/26 09:14:35;;;;;;;40.17;4.75;;;;;21.10;101460.00;;;;10255651;28;20750;-84
2023/09/26 09:19:45;;;;;;;5.35;2.50;;;;;21.30;101459.00;;;;10257104;28;20715;-83
2023/09/26 09:24:55;;;;;;;14.10;3.50;;;;;21.50;101461.00;;;;10272041;28;20204;-81
2023/09/26 09:30:14;;;;;;;285.33;30.75;;;;;21.50;101455.00;;;;10287492;28;20196;-84
2023/09/26 09:35:17;;;;;;;5.55;2.47;;;;;21.90;101447.00;;;;10267347;28;20679;-82
2023/09/26 09:40:22;;;;;;;5.05;2.72;;;;;22.60;101437.00;;;;10270533;28;20200;-83
2023/09/26 09:45:28;;;;;;;3.95;2.65;;;;;22.80;101443.00;;;;10265757;28;20189;-84
2023/09/26 09:50:32;;;;;;;9.48;2.53;;;;;23.00;101444.00;;;;10260990;28;20236;-85
2023/09/26 09:55:39;;;;;;;6.78;2.40;;;;;23.30;101429.00;;;;10296366;28;20707;-85
2023/09/26 10:00:41;;;;;;;2.70;1.90;;;;;23.50;101421.00;;;;10259477;28;20189;-82
2023/09/26 10:05:45;;;;;;;10.60;2.83;;;;;23.20;101429.00;;;;10257328;28;20200;-84
2023/09/26 10:10:47;;;;;;;7.43;2.17;;;;;23.30;101418.00;;;;10259287;28;20260;-81
2023/09/26 10:16:14;;;;;;;3.65;2.10;;;;;23.30;101423.00;;;;10268650;28;20205;-81
2023/09/26 10:21:30;;;;;;;5.70;2.05;;;;;23.60;101427.00;;;;10272151;28;20228;-78
2023/09/26 10:26:33;;;;;;;6.80;2.60;;;;;23.50;101417.00;;;;10281652;28;20201;-81
2023/09/26 10:31:36;;;;;;;3.97;2.00;;;;;23.60;101416.00;;;;10281807;28;20228;-81
2023/09/26 10:36:39;;;;;;;19.75;4.32;;;;;24.00;101416.00;;;;10262401;28;20204;-80
2023/09/26 10:41:40;;;;;;;4.00;2.20;;;;;23.90;101425.00;;;;10270715;28;20189;-81
2023/09/26 10:47:04;;;;;;;4.18;2.03;;;;;24.00;101424.00;;;;10247735;28;20200;-82
2023/09/26 10:52:08;;;;;;;4.57;2.70;;;;;24.70;101411.00;;;;10268809;28;20209;-80
2023/09/26 10:57:18;;;;;;;4.40;1.88;;;;;24.60;101410.00;;;;10261901;28;20209;-79
2023/09/26 11:02:22;;;;;;;7.05;2.25;;;;;24.50;101406.00;;;;10274504;28;20205;-81
2023/09/26 11:07:25;;;;;;;249.55;24.75;;;;;24.40;101406.00;;;;10272888;28;20224;-82
2023/09/26 11:12:27;;;;;;;3.40;2.38;;;;;24.20;101409.00;;;;10262836;28;20217;-79
2023/09/26 11:17:31;;;;;;;5.57;2.90;;;;;24.10;101414.00;;;;10276596;28;20193;-81
2023/09/26 11:22:47;;;;;;;3.85;1.98;;;;;24.10;101394.00;;;;10302267;28;20197;-91
2023/09/26 11:27:50;;;;;;;3.95;2.20;;;;;24.60;101382.00;;;;10295332;28;20297;-85
2023/09/26 11:32:55;;;;;;;7.22;2.17;;;;;24.70;101376.00;;;;10284151;28;20211;-88
2023/09/26 11:37:57;;;;;;;5.15;2.45;;;;;24.40;101378.00;;;;10290939;28;20284;-90
2023/09/26 11:43:03;;;;;;;3.97;2.38;;;;;24.40;101382.00;;;;10286003;28;20204;-89
2023/09/26 11:48:06;;;;;;;10.15;2.65;;;;;24.90;101387.00;;;;10286735;28;20185;-88
2023/09/26 11:53:09;;;;;;;7.13;2.65;;;;;25.30;101383.00;;;;10298246;28;20240;-92
2023/09/26 11:58:10;;;;;;;4.80;2.60;;;;;25.70;101380.00;;;;10302976;28;20251;-92
2023/09/26 12:03:12;;;;;;;5.75;2.47;;;;;25.90;101378.00;;;;10317952;28;20221;-87
2023/09/26 12:08:14;;;;;;;6.25;2.42;;;;;26.50;101375.00;;;;10305688;28;20189;-87
2023/09/26 12:13:16;;;;;;;5.05;1.90;;;;;26.80;101374.00;;;;10326092;28;20777;-89
2023/09/26 12:18:18;;;;;;;4.18;2.00;;;;;27.20;101371.00;;;;10275870;28;20193;-90
2023/09/26 12:23:21;;;;;;;3.00;2.08;;;;;26.40;101376.00;;;;10257601;28;20647;-90
2023/09/26 12:28:23;;;;;;;4.10;2.10;;;;;26.90;101370.00;;;;10261702;28;20193;-78
2023/09/26 12:33:25;;;;;;;4.75;2.40;;;;;27.10;101360.00;;;;10262188;28;20213;-81
2023/09/26 12:38:27;;;;;;;2.53;1.98;;;;;26.40;101358.00;;;;10270380;28;20520;-78
2023/09/26 12:43:29;;;;;;;3.75;1.95;;;;;26.30;101352.00;;;;10236840;28;20567;-79
2023/09/26 12:48:31;;;;;;;3.42;1.90;;;;;26.80;101351.00;;;;10275337;28;20694;-79
2023/09/26 12:53:33;;;;;;;4.15;1.92;;;;;26.20;101361.00;;;;10252897;28;20225;-79
2023/09/26 12:58:36;;;;;;;3.38;1.80;;;;;26.50;101363.00;;;;10269073;28;20267;-80
2023/09/26 13:03:39;;;;;;;3.85;1.90;;;;;26.50;101369.00;;;;10269117;28;20201;-79
2023/09/26 13:08:41;;;;;;;4.75;2.30;;;;;26.40;101365.00;;;;10285884;28;20197;-78
2023/09/26 13:13:42;;;;;;;4.10;2.08;;;;;26.30;101368.00;;;;10246985;28;20259;-80
2023/09/26 13:18:44;;;;;;;3.80;2.05;;;;;26.00;101359.00;;;;10272458;28;20248;-80
2023/09/26 13:23:46;;;;;;;2.92;1.90;;;;;25.30;101356.00;;;;10286083;28;20204;-79
2023/09/26 13:28:48;;;;;;;3.55;2.03;;;;;24.80;101364.00;;;;10247245;28;20296;-78
2023/09/26 13:33:50;;;;;;;6.07;2.08;;;;;24.80;101357.00;;;;10270335;28;20323;-78
2023/09/26 13:45:09;;;;;;;3.40;1.77;;;;;25.20;101359.00;;;;11345248;25;20236;-83
2023/09/26 14:33:16;;;;;;;2.05;1.83;;;;;24.90;101330.00;;;;3611377;25;20658;-86
2023/09/26 14:56:40;;;;;;;2.58;1.50;;;;;24.60;101322.00;;;;9670161;30;20231;-82
2023/09/26 15:01:42;;;;;;;4.55;1.60;;;;;24.40;101326.00;;;;9691562;30;20259;-81
2023/09/26 15:06:44;;;;;;;4.10;1.80;;;;;24.40;101317.00;;;;9685881;30;20248;-81
2023/09/26 15:11:46;;;;;;;2.63;1.98;;;;;24.30;101320.00;;;;9675827;30;20255;-81
2023/09/26 15:16:48;;;;;;;6.65;2.65;;;;;24.20;101321.00;;;;9655536;30;20235;-82
2023/09/26 15:21:50;;;;;;;4.65;2.08;;;;;24.10;101332.00;;;;9649818;30;20307;-82
2023/09/26 15:26:52;;;;;;;2.40;2.00;;;;;24.00;101334.00;;;;9668903;30;20219;-82
2023/09/26 15:31:54;;;;;;;2.72;1.70;;;;;23.90;101319.00;;;;9665808;30;20302;-82
2023/09/26 15:36:56;;;;;;;5.22;1.75;;;;;23.80;101311.00;;;;9671558;30;20310;-81
2023/09/26 15:41:58;;;;;;;4.85;2.85;;;;;23.70;101305.00;;;;9661544;30;20219;-82
2023/09/26 15:47:01;;;;;;;3.13;2.38;;;;;23.70;101310.00;;;;9665668;30;20239;-82
2023/09/26 15:52:03;;;;;;;4.82;2.17;;;;;23.60;101311.00;;;;9689944;30;20246;-82
2023/09/26 15:57:06;;;;;;;3.85;2.60;;;;;23.50;101309.00;;;;9673451;30;20648;-82
2023/09/26 16:02:08;;;;;;;3.80;2.42;;;;;23.30;101297.00;;;;9661271;30;20223;-82
2023/09/26 16:07:10;;;;;;;5.50;2.20;;;;;23.10;101312.00;;;;9675844;30;20226;-80
2023/09/26 16:12:12;;;;;;;7.15;2.83;;;;;22.90;101310.00;;;;9670250;30;20671;-81
2023/09/26 16:17:18;;;;;;;3.17;2.45;;;;;22.70;101286.00;;;;9673149;30;20243;-78
2023/09/26 16:22:20;;;;;;;5.50;2.10;;;;;22.60;101287.00;;;;9668029;30;20877;-80
2023/09/26 16:27:21;;;;;;;4.07;2.63;;;;;22.40;101277.00;;;;9674017;30;20278;-82
2023/09/26 16:32:23;;;;;;;5.45;2.13;;;;;22.30;101290.00;;;;9649897;30;20241;-82
2023/09/26 16:37:25;;;;;;;5.65;2.28;;;;;22.20;101281.00;;;;9625065;30;20263;-81
2023/09/26 16:42:27;;;;;;;5.68;1.80;;;;;22.10;101287.00;;;;9635735;30;20319;-81
2023/09/26 16:47:30;;;;;;;5.88;2.92;;;;;21.80;101298.00;;;;9633861;30;20224;-82
2023/09/26 16:52:34;;;;;;;7.78;2.30;;;;;21.60;101318.00;;;;9651512;30;20239;-81
2023/09/26 16:57:36;;;;;;;3.22;2.15;;;;;21.40;101321.00;;;;9646404;30;20299;-81
2023/09/26 17:02:38;;;;;;;6.05;2.75;;;;;21.30;101326.00;;;;9656096;30;20236;-80
2023/09/26 17:07:40;;;;;;;2.88;2.03;;;;;21.10;101334.00;;;;9624094;30;20311;-81
2023/09/26 17:12:42;;;;;;;4.88;2.95;;;;;20.90;101339.00;;;;9662003;30;20284;-89
2023/09/26 17:17:44;;;;;;;3.25;2.38;;;;;20.60;101346.00;;;;9632664;30;20303;-86
2023/09/26 17:22:46;;;;;;;5.78;2.67;;;;;20.30;101351.00;;;;9649711;30;20217;-88
2023/09/26 17:27:48;;;;;;;3.15;2.50;;;;;20.00;101368.00;;;;9646332;30;20216;-88
2023/09/26 17:32:50;;;;;;;6.18;2.85;;;;;19.80;101359.00;;;;9674001;30;20216;-85
2023/09/26 17:37:53;;;;;;;5.50;3.25;;;;;19.50;101368.00;;;;9654691;30;20228;-87
2023/09/26 17:42:55;;;;;;;8.25;4.00;;;;;19.20;101368.00;;;;9663628;30;20217;-88
2023/09/26 17:47:58;;;;;;;7.10;3.17;;;;;19.20;101368.00;;;;9662384;30;20221;-89
2023/09/26 17:53:00;;;;;;;6.45;2.80;;;;;19.10;101378.00;;;;9664236;30;20235;-86
2023/09/26 17:58:02;;;;;;;10.40;5.30;;;;;19.10;101388.00;;;;9678401;30;20224;-87
2023/09/26 18:03:05;;;;;;;10.07;7.78;;;;;18.90;101396.00;;;;9637427;30;20228;-88
2023/09/26 18:08:07;;;;;;;19.17;14.70;;;;;18.80;101395.00;;;;9653889;30;20294;-85
2023/09/26 18:13:09;;;;;;;34.03;25.65;;;;;18.70;101401.00;;;;9656570;30;20218;-87
2023/09/26 18:18:10;;;;;;;16.48;11.55;;;;;18.60;101405.00;;;;9668086;30;20230;-86
2023/09/26 18:23:13;;;;;;;12.30;7.65;;;;;18.60;101418.00;;;;9624804;30;20244;-81
2023/09/26 18:28:17;;;;;;;7.13;4.45;;;;;18.50;101419.00;;;;9636258;30;20311;-81
2023/09/26 18:33:19;;;;;;;7.53;3.03;;;;;18.40;101429.00;;;;9623304;30;20780;-81
2023/09/26 18:38:21;;;;;;;4.07;2.60;;;;;18.20;101428.00;;;;9628003;30;20268;-81
2023/09/26 18:43:23;;;;;;;7.30;3.20;;;;;18.10;101421.00;;;;9655448;30;20723;-81
2023/09/26 18:48:26;;;;;;;6.30;2.67;;;;;18.10;101419.00;;;;9650754;30;20298;-81
2023/09/26 18:53:28;;;;;;;5.63;2.83;;;;;18.00;101430.00;;;;9679535;30;20228;-81
2023/09/26 18:58:30;;;;;;;5.88;2.88;;;;;17.90;101423.00;;;;9672993;30;20220;-81
2023/09/26 19:03:32;;;;;;;5.25;2.72;;;;;17.90;101421.00;;;;9674273;30;20211;-81
2023/09/26 19:08:37;;;;;;;6.03;2.80;;;;;17.80;101419.00;;;;9666157;30;20231;-81
2023/09/26 19:13:39;;;;;;;4.97;3.30;;;;;17.70;101415.00;;;;9669000;30;20231;-81
2023/09/26 19:18:41;;;;;;;3.78;2.60;;;;;17.80;101402.00;;;;9670616;30;20235;-81
2023/09/26 19:24:04;;;;;;;5.05;3.25;;;;;17.70;101396.00;;;;9669831;30;20237;-81
2023/09/26 19:29:07;;;;;;;6.28;3.30;;;;;17.60;101394.00;;;;9671276;30;20328;-83
2023/09/26 19:34:14;;;;;;;5.57;3.50;;;;;17.50;101401.00;;;;9682479;30;20224;-79
2023/09/26 19:39:18;;;;;;;5.90;3.10;;;;;17.40;101401.00;;;;9682559;30;20392;-80
2023/09/26 19:44:21;;;;;;;4.70;3.00;;;;;17.20;101393.00;;;;9686110;30;20219;-81
2023/09/26 19:49:26;;;;;;;5.05;3.00;;;;;17.00;101405.00;;;;9660617;30;21651;-80
2023/09/26 19:54:30;;;;;;;6.20;3.30;;;;;16.80;101390.00;;;;9675985;30;20224;-82
2023/09/26 19:59:35;;;;;;;7.35;3.53;;;;;16.70;101408.00;;;;9702421;30;20223;-82
2023/09/26 20:04:38;;;;;;;4.85;3.25;;;;;16.60;101437.00;;;;9665968;30;20274;-82
2023/09/26 20:09:46;;;;;;;4.40;3.40;;;;;16.50;101428.00;;;;9674006;30;20270;-82
2023/09/26 20:14:55;;;;;;;5.30;3.70;;;;;16.40;101427.00;;;;9667688;30;20219;-82
2023/09/26 20:19:58;;;;;;;5.15;3.80;;;;;16.30;101431.00;;;;9670538;30;20212;-82
2023/09/26 20:25:03;;;;;;;4.43;3.20;;;;;16.10;101443.00;;;;9679276;30;20247;-81
2023/09/26 20:48:49;;;;;;;4.72;3.50;;;;;16.00;101421.00;;;;10545327;27;1614264;-82
2023/09/26 20:53:51;;;;;;;6.80;3.88;;;;;15.80;101436.00;;;;10560157;27;20179;-81
2023/09/26 20:58:54;;;;;;;6.38;3.67;;;;;15.70;101440.00;;;;10559246;28;20180;-77
2023/09/26 21:03:58;;;;;;;7.97;3.90;;;;;15.60;101448.00;;;;10556477;27;20196;-77
2023/09/26 21:09:01;;;;;;;5.32;3.95;;;;;15.50;101454.00;;;;10550062;28;20259;-79
2023/09/26 21:14:03;;;;;;;5.95;4.18;;;;;15.40;101457.00;;;;10564684;27;20200;-77
2023/09/26 21:19:05;;;;;;;5.78;4.03;;;;;15.40;101460.00;;;;10549655;27;20200;-76
2023/09/26 21:24:07;;;;;;;7.47;4.13;;;;;15.30;101459.00;;;;10551178;28;20864;-79
2023/09/26 21:29:10;;;;;;;8.60;4.70;;;;;15.30;101459.00;;;;10544629;27;20199;-76
2023/09/26 21:34:12;;;;;;;7.35;4.72;;;;;15.20;101451.00;;;;10560147;28;20200;-78
2023/09/26 21:39:14;;;;;;;4.95;4.00;;;;;15.20;101447.00;;;;10564589;28;20215;-79
2023/09/26 21:44:16;;;;;;;5.05;3.88;;;;;15.20;101448.00;;;;10559955;28;20222;-78
2023/09/26 21:49:17;;;;;;;6.75;4.50;;;;;15.20;101441.00;;;;10561761;27;20824;-78
2023/09/26 21:54:19;;;;;;;7.78;4.65;;;;;15.20;101443.00;;;;10551092;27;20798;-78
2023/09/26 21:59:21;;;;;;;8.15;4.93;;;;;15.10;101442.00;;;;10524469;27;20200;-78
2023/09/26 22:04:23;;;;;;;7.50;4.53;;;;;15.10;101435.00;;;;10525570;27;20212;-76
2023/09/26 22:09:25;;;;;;;8.63;4.60;;;;;15.10;101415.00;;;;10541777;28;20205;-79
2023/09/26 22:14:27;;;;;;;5.90;4.03;;;;;15.10;101418.00;;;;10553481;28;20188;-81
2023/09/26 22:19:29;;;;;;;10.43;4.25;;;;;15.10;101431.00;;;;10518840;28;20197;-81
2023/09/26 22:24:31;;;;;;;5.40;4.03;;;;;15.10;101443.00;;;;10536519;28;20212;-80
2023/09/26 22:29:33;;;;;;;5.43;3.78;;;;;15.00;101435.00;;;;10503465;27;20930;-80
2023/09/26 22:34:36;;;;;;;6.68;3.90;;;;;14.90;101422.00;;;;10507126;28;20685;-80
2023/09/26 22:39:38;;;;;;;10.48;4.40;;;;;14.90;101424.00;;;;10463892;28;20225;-80
2023/09/26 22:44:40;;;;;;;6.32;4.22;;;;;14.80;101412.00;;;;10440569;28;20237;-80
2023/09/26 22:49:42;;;;;;;6.90;4.60;;;;;14.70;101417.00;;;;10470994;28;20186;-81
2023/09/26 22:54:45;;;;;;;7.65;4.63;;;;;14.70;101411.00;;;;10466880;28;20297;-81
2023/09/26 22:59:47;;;;;;;7.07;4.50;;;;;14.70;101389.00;;;;10472461;28;20200;-81
2023/09/26 23:04:49;;;;;;;5.00;4.50;;;;;14.70;101392.00;;;;10466989;28;20295;-81
2023/09/26 23:09:51;;;;;;;5.82;4.57;;;;;14.70;101406.00;;;;10452730;28;20240;-79
2023/09/26 23:14:53;;;;;;;5.70;4.60;;;;;14.80;101417.00;;;;10444503;28;20232;-80
